sensor_id;sensor_type;location;lat;lon;timestamp;P1;durP1;ratioP1;P2;durP2;ratioP2
45252;SDS011;63171;50.520;30.486;2024-02-23T00:00:22;8.25;;;4.78;;
45252;SDS011;63171;50.520;30.486;2024-02-23T00:01:12;8.27;;;5.20;;
45252;SDS011;63171;50.520;30.486;2024-02-23T00:02:03;7.97;;;5.35;;
45252;SDS011;63171;50.520;30.486;2024-02-23T00:02:53;5.75;;;5.03;;
45252;SDS011;63171;50.520;30.486;2024-02-23T00:03:43;5.43;;;4.45;;
45252;SDS011;63171;50.520;30.486;2024-02-23T00:04:33;7.93;;;5.78;;
45252;SDS011;63171;50.520;30.486;2024-02-23T00:05:23;6.28;;;5.40;;
45252;SDS011;63171;50.520;30.486;2024-02-23T00:06:14;7.15;;;6.05;;
45252;SDS011;63171;50.520;30.486;2024-02-23T00:07:05;7.03;;;5.63;;
45252;SDS011;63171;50.520;30.486;2024-02-23T00:07:54;8.40;;;5.65;;
45252;SDS011;63171;50.520;30.486;2024-02-23T00:08:45;6.60;;;5.45;;
45252;SDS011;63171;50.520;30.486;2024-02-23T00:09:35;7.47;;;5.78;;
45252;SDS011;63171;50.520;30.486;2024-02-23T00:10:25;7.95;;;4.75;;
45252;SDS011;63171;50.520;30.486;2024-02-23T00:11:15;6.30;;;4.80;;
45252;SDS011;63171;50.520;30.486;2024-02-23T00:12:57;8.02;;;5.00;;
45252;SDS011;63171;50.520;30.486;2024-02-23T00:13:49;6.47;;;5.68;;
45252;SDS011;63171;50.520;30.486;2024-02-23T00:14:41;7.45;;;5.80;;
45252;SDS011;63171;50.520;30.486;2024-02-23T00:15:30;6.15;;;5.55;;
45252;SDS011;63171;50.520;30.486;2024-02-23T00:16:21;5.85;;;5.00;;
45252;SDS011;63171;50.520;30.486;2024-02-23T00:17:11;4.60;;;4.20;;
45252;SDS011;63171;50.520;30.486;2024-02-23T00:18:01;6.55;;;4.85;;
45252;SDS011;63171;50.520;30.486;2024-02-23T00:18:53;5.40;;;4.65;;
45252;SDS011;63171;50.520;30.486;2024-02-23T00:19:44;5.70;;;5.10;;
45252;SDS011;63171;50.520;30.486;2024-02-23T00:20:35;5.60;;;4.40;;
45252;SDS011;63171;50.520;30.486;2024-02-23T00:21:25;6.22;;;5.18;;
45252;SDS011;63171;50.520;30.486;2024-02-23T00:22:16;6.97;;;4.78;;
45252;SDS011;63171;50.520;30.486;2024-02-23T00:23:06;5.60;;;5.07;;
45252;SDS011;63171;50.520;30.486;2024-02-23T00:23:56;8.90;;;5.70;;
45252;SDS011;63171;50.520;30.486;2024-02-23T00:24:46;6.93;;;4.95;;
45252;SDS011;63171;50.520;30.486;2024-02-23T00:25:36;5.30;;;4.80;;
45252;SDS011;63171;50.520;30.486;2024-02-23T00:26:25;6.47;;;4.93;;
45252;SDS011;63171;50.520;30.486;2024-02-23T00:27:17;5.43;;;4.80;;
45252;SDS011;63171;50.520;30.486;2024-02-23T00:28:07;5.18;;;4.68;;
45252;SDS011;63171;50.520;30.486;2024-02-23T00:29:49;4.78;;;4.20;;
45252;SDS011;63171;50.520;30.486;2024-02-23T00:30:38;6.15;;;4.80;;
45252;SDS011;63171;50.520;30.486;2024-02-23T00:31:28;5.30;;;4.80;;
45252;SDS011;63171;50.520;30.486;2024-02-23T00:32:19;5.45;;;4.80;;
45252;SDS011;63171;50.520;30.486;2024-02-23T00:33:08;7.25;;;5.20;;
45252;SDS011;63171;50.520;30.486;2024-02-23T00:33:59;9.00;;;5.15;;
45252;SDS011;63171;50.520;30.486;2024-02-23T00:34:49;5.28;;;4.63;;
45252;SDS011;63171;50.520;30.486;2024-02-23T00:35:39;4.60;;;4.05;;
45252;SDS011;63171;50.520;30.486;2024-02-23T00:36:29;5.22;;;4.72;;
45252;SDS011;63171;50.520;30.486;2024-02-23T00:37:19;5.22;;;4.35;;
45252;SDS011;63171;50.520;30.486;2024-02-23T00:38:09;4.45;;;4.05;;
45252;SDS011;63171;50.520;30.486;2024-02-23T00:38:59;6.03;;;4.28;;
45252;SDS011;63171;50.520;30.486;2024-02-23T00:39:50;7.10;;;4.57;;
45252;SDS011;63171;50.520;30.486;2024-02-23T00:40:40;6.28;;;4.57;;
45252;SDS011;63171;50.520;30.486;2024-02-23T00:41:29;5.25;;;4.30;;
45252;SDS011;63171;50.520;30.486;2024-02-23T00:42:20;5.60;;;4.40;;
45252;SDS011;63171;50.520;30.486;2024-02-23T00:43:10;5.80;;;5.22;;
45252;SDS011;63171;50.520;30.486;2024-02-23T00:44:01;7.68;;;5.38;;
45252;SDS011;63171;50.520;30.486;2024-02-23T00:44:52;6.15;;;4.85;;
45252;SDS011;63171;50.520;30.486;2024-02-23T00:45:42;4.70;;;4.25;;
45252;SDS011;63171;50.520;30.486;2024-02-23T00:46:32;4.55;;;3.95;;
45252;SDS011;63171;50.520;30.486;2024-02-23T00:47:23;4.90;;;4.40;;
45252;SDS011;63171;50.520;30.486;2024-02-23T00:48:14;4.65;;;4.15;;
45252;SDS011;63171;50.520;30.486;2024-02-23T00:49:04;4.65;;;4.00;;
45252;SDS011;63171;50.520;30.486;2024-02-23T00:49:55;5.25;;;4.43;;
45252;SDS011;63171;50.520;30.486;2024-02-23T00:50:45;5.22;;;4.07;;
45252;SDS011;63171;50.520;30.486;2024-02-23T00:51:34;7.25;;;4.85;;
45252;SDS011;63171;50.520;30.486;2024-02-23T00:52:25;6.20;;;5.28;;
45252;SDS011;63171;50.520;30.486;2024-02-23T00:53:15;5.43;;;4.53;;
45252;SDS011;63171;50.520;30.486;2024-02-23T00:54:06;4.90;;;4.40;;
45252;SDS011;63171;50.520;30.486;2024-02-23T00:54:58;6.18;;;5.00;;
45252;SDS011;63171;50.520;30.486;2024-02-23T00:55:47;7.38;;;5.15;;
45252;SDS011;63171;50.520;30.486;2024-02-23T00:56:37;7.22;;;4.88;;
45252;SDS011;63171;50.520;30.486;2024-02-23T00:57:29;6.45;;;4.93;;
45252;SDS011;63171;50.520;30.486;2024-02-23T00:58:19;4.88;;;4.15;;
45252;SDS011;63171;50.520;30.486;2024-02-23T00:59:08;6.10;;;4.72;;
45252;SDS011;63171;50.520;30.486;2024-02-23T01:00:00;5.50;;;4.63;;
45252;SDS011;63171;50.520;30.486;2024-02-23T01:04:05;6.57;;;4.90;;
45252;SDS011;63171;50.520;30.486;2024-02-23T01:04:56;5.68;;;4.57;;
45252;SDS011;63171;50.520;30.486;2024-02-23T01:05:47;5.50;;;5.00;;
45252;SDS011;63171;50.520;30.486;2024-02-23T01:06:37;4.95;;;4.22;;
45252;SDS011;63171;50.520;30.486;2024-02-23T01:07:28;7.00;;;5.85;;
45252;SDS011;63171;50.520;30.486;2024-02-23T01:08:18;4.53;;;4.05;;
45252;SDS011;63171;50.520;30.486;2024-02-23T01:09:08;6.03;;;5.25;;
45252;SDS011;63171;50.520;30.486;2024-02-23T01:09:59;5.63;;;4.65;;
45252;SDS011;63171;50.520;30.486;2024-02-23T01:10:49;5.30;;;4.68;;
45252;SDS011;63171;50.520;30.486;2024-02-23T01:11:39;6.15;;;5.55;;
45252;SDS011;63171;50.520;30.486;2024-02-23T01:12:30;5.43;;;4.93;;
45252;SDS011;63171;50.520;30.486;2024-02-23T01:13:19;6.22;;;5.00;;
45252;SDS011;63171;50.520;30.486;2024-02-23T01:14:09;6.20;;;5.28;;
45252;SDS011;63171;50.520;30.486;2024-02-23T01:15:03;7.00;;;5.72;;
45252;SDS011;63171;50.520;30.486;2024-02-23T01:15:53;6.80;;;5.20;;
45252;SDS011;63171;50.520;30.486;2024-02-23T01:16:43;8.80;;;5.22;;
45252;SDS011;63171;50.520;30.486;2024-02-23T01:17:34;7.93;;;5.88;;
45252;SDS011;63171;50.520;30.486;2024-02-23T01:18:24;6.60;;;5.65;;
45252;SDS011;63171;50.520;30.486;2024-02-23T01:19:16;6.18;;;5.03;;
45252;SDS011;63171;50.520;30.486;2024-02-23T01:20:08;8.02;;;5.10;;
45252;SDS011;63171;50.520;30.486;2024-02-23T01:20:59;7.03;;;5.05;;
45252;SDS011;63171;50.520;30.486;2024-02-23T01:21:49;7.15;;;5.40;;
45252;SDS011;63171;50.520;30.486;2024-02-23T01:22:48;5.55;;;4.95;;
45252;SDS011;63171;50.520;30.486;2024-02-23T01:23:38;5.97;;;4.72;;
45252;SDS011;63171;50.520;30.486;2024-02-23T01:24:28;5.72;;;5.13;;
45252;SDS011;63171;50.520;30.486;2024-02-23T01:25:18;6.53;;;4.35;;
45252;SDS011;63171;50.520;30.486;2024-02-23T01:26:08;6.65;;;5.95;;
45252;SDS011;63171;50.520;30.486;2024-02-23T01:26:59;6.93;;;4.50;;
45252;SDS011;63171;50.520;30.486;2024-02-23T01:27:49;6.07;;;4.97;;
45252;SDS011;63171;50.520;30.486;2024-02-23T01:28:39;6.90;;;4.97;;
45252;SDS011;63171;50.520;30.486;2024-02-23T01:29:29;6.00;;;5.32;;
45252;SDS011;63171;50.520;30.486;2024-02-23T01:30:21;5.40;;;4.32;;
45252;SDS011;63171;50.520;30.486;2024-02-23T01:31:11;6.60;;;5.28;;
45252;SDS011;63171;50.520;30.486;2024-02-23T01:32:02;8.15;;;5.47;;
45252;SDS011;63171;50.520;30.486;2024-02-23T01:32:52;6.18;;;5.07;;
45252;SDS011;63171;50.520;30.486;2024-02-23T01:33:43;5.93;;;4.97;;
45252;SDS011;63171;50.520;30.486;2024-02-23T01:35:23;5.72;;;5.00;;
45252;SDS011;63171;50.520;30.486;2024-02-23T01:36:14;8.15;;;5.35;;
45252;SDS011;63171;50.520;30.486;2024-02-23T01:37:03;6.03;;;5.05;;
45252;SDS011;63171;50.520;30.486;2024-02-23T01:37:54;6.93;;;5.50;;
45252;SDS011;63171;50.520;30.486;2024-02-23T01:38:45;7.72;;;6.18;;
45252;SDS011;63171;50.520;30.486;2024-02-23T01:39:34;5.68;;;4.70;;
45252;SDS011;63171;50.520;30.486;2024-02-23T01:40:25;7.22;;;5.35;;
45252;SDS011;63171;50.520;30.486;2024-02-23T01:41:15;5.43;;;4.82;;
45252;SDS011;63171;50.520;30.486;2024-02-23T01:42:05;11.07;;;6.38;;
45252;SDS011;63171;50.520;30.486;2024-02-23T01:43:05;5.57;;;5.03;;
45252;SDS011;63171;50.520;30.486;2024-02-23T01:43:55;5.70;;;5.13;;
45252;SDS011;63171;50.520;30.486;2024-02-23T01:44:45;6.78;;;5.38;;
45252;SDS011;63171;50.520;30.486;2024-02-23T01:45:37;5.78;;;5.18;;
45252;SDS011;63171;50.520;30.486;2024-02-23T01:46:27;7.32;;;5.35;;
45252;SDS011;63171;50.520;30.486;2024-02-23T01:47:17;5.55;;;4.95;;
45252;SDS011;63171;50.520;30.486;2024-02-23T01:48:08;6.93;;;5.38;;
45252;SDS011;63171;50.520;30.486;2024-02-23T01:48:58;6.95;;;5.63;;
45252;SDS011;63171;50.520;30.486;2024-02-23T01:49:48;5.32;;;4.80;;
45252;SDS011;63171;50.520;30.486;2024-02-23T01:50:39;6.75;;;5.05;;
45252;SDS011;63171;50.520;30.486;2024-02-23T01:51:29;6.15;;;4.90;;
45252;SDS011;63171;50.520;30.486;2024-02-23T01:52:19;7.43;;;5.18;;
45252;SDS011;63171;50.520;30.486;2024-02-23T01:53:10;7.40;;;5.85;;
45252;SDS011;63171;50.520;30.486;2024-02-23T01:54:01;7.75;;;5.88;;
45252;SDS011;63171;50.520;30.486;2024-02-23T01:54:53;8.15;;;5.90;;
45252;SDS011;63171;50.520;30.486;2024-02-23T01:55:45;6.57;;;5.53;;
45252;SDS011;63171;50.520;30.486;2024-02-23T01:57:28;5.70;;;4.50;;
45252;SDS011;63171;50.520;30.486;2024-02-23T01:58:18;6.53;;;5.35;;
45252;SDS011;63171;50.520;30.486;2024-02-23T01:59:08;6.07;;;5.35;;
45252;SDS011;63171;50.520;30.486;2024-02-23T02:00:01;6.88;;;4.88;;
45252;SDS011;63171;50.520;30.486;2024-02-23T02:00:55;5.95;;;5.35;;
45252;SDS011;63171;50.520;30.486;2024-02-23T02:01:45;6.05;;;4.80;;
45252;SDS011;63171;50.520;30.486;2024-02-23T02:02:36;6.50;;;5.32;;
45252;SDS011;63171;50.520;30.486;2024-02-23T02:03:27;11.00;;;5.13;;
45252;SDS011;63171;50.520;30.486;2024-02-23T02:04:17;7.00;;;5.38;;
45252;SDS011;63171;50.520;30.486;2024-02-23T02:05:07;6.03;;;5.35;;
45252;SDS011;63171;50.520;30.486;2024-02-23T02:05:58;6.80;;;5.40;;
45252;SDS011;63171;50.520;30.486;2024-02-23T02:06:48;6.28;;;5.65;;
45252;SDS011;63171;50.520;30.486;2024-02-23T02:07:39;6.45;;;5.03;;
45252;SDS011;63171;50.520;30.486;2024-02-23T02:08:30;6.35;;;5.72;;
45252;SDS011;63171;50.520;30.486;2024-02-23T02:09:20;8.43;;;5.38;;
45252;SDS011;63171;50.520;30.486;2024-02-23T02:10:10;6.47;;;5.05;;
45252;SDS011;63171;50.520;30.486;2024-02-23T02:11:51;7.35;;;5.75;;
45252;SDS011;63171;50.520;30.486;2024-02-23T02:12:41;5.75;;;4.93;;
45252;SDS011;63171;50.520;30.486;2024-02-23T02:13:31;5.82;;;5.07;;
45252;SDS011;63171;50.520;30.486;2024-02-23T02:14:22;7.40;;;5.60;;
45252;SDS011;63171;50.520;30.486;2024-02-23T02:15:11;7.65;;;6.30;;
45252;SDS011;63171;50.520;30.486;2024-02-23T02:16:03;6.72;;;5.75;;
45252;SDS011;63171;50.520;30.486;2024-02-23T02:16:53;5.28;;;4.78;;
45252;SDS011;63171;50.520;30.486;2024-02-23T02:17:44;5.60;;;4.95;;
45252;SDS011;63171;50.520;30.486;2024-02-23T02:19:24;8.95;;;6.43;;
45252;SDS011;63171;50.520;30.486;2024-02-23T02:20:13;8.70;;;6.35;;
45252;SDS011;63171;50.520;30.486;2024-02-23T02:21:03;5.85;;;5.25;;
45252;SDS011;63171;50.520;30.486;2024-02-23T02:21:54;8.57;;;6.10;;
45252;SDS011;63171;50.520;30.486;2024-02-23T02:22:44;6.05;;;5.32;;
45252;SDS011;63171;50.520;30.486;2024-02-23T02:23:34;7.07;;;5.90;;
45252;SDS011;63171;50.520;30.486;2024-02-23T02:24:26;5.68;;;5.13;;
45252;SDS011;63171;50.520;30.486;2024-02-23T02:25:16;7.32;;;6.57;;
45252;SDS011;63171;50.520;30.486;2024-02-23T02:26:06;7.90;;;5.75;;
45252;SDS011;63171;50.520;30.486;2024-02-23T02:26:56;7.05;;;5.78;;
45252;SDS011;63171;50.520;30.486;2024-02-23T02:27:46;6.72;;;6.00;;
45252;SDS011;63171;50.520;30.486;2024-02-23T02:28:36;6.57;;;5.78;;
45252;SDS011;63171;50.520;30.486;2024-02-23T02:29:27;6.72;;;5.90;;
45252;SDS011;63171;50.520;30.486;2024-02-23T02:30:17;6.47;;;5.78;;
45252;SDS011;63171;50.520;30.486;2024-02-23T02:31:09;7.65;;;5.55;;
45252;SDS011;63171;50.520;30.486;2024-02-23T02:31:59;5.93;;;4.85;;
45252;SDS011;63171;50.520;30.486;2024-02-23T02:32:48;6.97;;;6.07;;
45252;SDS011;63171;50.520;30.486;2024-02-23T02:33:39;6.55;;;5.40;;
45252;SDS011;63171;50.520;30.486;2024-02-23T02:34:29;6.03;;;5.43;;
45252;SDS011;63171;50.520;30.486;2024-02-23T02:35:19;6.30;;;5.65;;
45252;SDS011;63171;50.520;30.486;2024-02-23T02:36:09;6.95;;;6.03;;
45252;SDS011;63171;50.520;30.486;2024-02-23T02:37:00;6.35;;;5.35;;
45252;SDS011;63171;50.520;30.486;2024-02-23T02:37:50;7.78;;;6.72;;
45252;SDS011;63171;50.520;30.486;2024-02-23T02:38:41;6.40;;;5.35;;
45252;SDS011;63171;50.520;30.486;2024-02-23T02:39:31;7.25;;;5.65;;
45252;SDS011;63171;50.520;30.486;2024-02-23T02:40:20;7.28;;;6.07;;
45252;SDS011;63171;50.520;30.486;2024-02-23T02:41:12;6.80;;;5.68;;
45252;SDS011;63171;50.520;30.486;2024-02-23T02:42:01;8.85;;;6.05;;
45252;SDS011;63171;50.520;30.486;2024-02-23T02:42:51;8.10;;;6.68;;
45252;SDS011;63171;50.520;30.486;2024-02-23T02:43:42;5.70;;;5.20;;
45252;SDS011;63171;50.520;30.486;2024-02-23T02:44:31;7.57;;;5.65;;
45252;SDS011;63171;50.520;30.486;2024-02-23T02:45:21;8.82;;;6.13;;
45252;SDS011;63171;50.520;30.486;2024-02-23T02:46:14;6.22;;;5.63;;
45252;SDS011;63171;50.520;30.486;2024-02-23T02:47:04;8.07;;;7.10;;
45252;SDS011;63171;50.520;30.486;2024-02-23T02:47:55;7.85;;;6.03;;
45252;SDS011;63171;50.520;30.486;2024-02-23T02:48:45;8.20;;;6.45;;
45252;SDS011;63171;50.520;30.486;2024-02-23T02:49:36;7.78;;;6.78;;
45252;SDS011;63171;50.520;30.486;2024-02-23T02:50:26;10.40;;;7.20;;
45252;SDS011;63171;50.520;30.486;2024-02-23T02:51:15;10.00;;;6.13;;
45252;SDS011;63171;50.520;30.486;2024-02-23T02:52:07;8.48;;;6.03;;
45252;SDS011;63171;50.520;30.486;2024-02-23T02:52:57;8.60;;;6.55;;
45252;SDS011;63171;50.520;30.486;2024-02-23T02:53:47;6.80;;;6.10;;
45252;SDS011;63171;50.520;30.486;2024-02-23T02:54:38;7.20;;;6.35;;
45252;SDS011;63171;50.520;30.486;2024-02-23T02:55:28;9.60;;;6.05;;
45252;SDS011;63171;50.520;30.486;2024-02-23T02:56:18;6.05;;;5.43;;
45252;SDS011;63171;50.520;30.486;2024-02-23T02:57:09;8.70;;;6.95;;
45252;SDS011;63171;50.520;30.486;2024-02-23T02:57:59;7.82;;;7.03;;
45252;SDS011;63171;50.520;30.486;2024-02-23T02:58:49;8.18;;;6.15;;
45252;SDS011;63171;50.520;30.486;2024-02-23T02:59:40;6.72;;;6.05;;
45252;SDS011;63171;50.520;30.486;2024-02-23T03:00:29;7.40;;;6.35;;
45252;SDS011;63171;50.520;30.486;2024-02-23T03:01:21;6.30;;;5.50;;
45252;SDS011;63171;50.520;30.486;2024-02-23T03:02:12;9.07;;;6.38;;
45252;SDS011;63171;50.520;30.486;2024-02-23T03:03:01;7.80;;;6.18;;
45252;SDS011;63171;50.520;30.486;2024-02-23T03:03:52;6.82;;;5.82;;
45252;SDS011;63171;50.520;30.486;2024-02-23T03:04:46;8.18;;;6.20;;
45252;SDS011;63171;50.520;30.486;2024-02-23T03:05:36;8.10;;;6.53;;
45252;SDS011;63171;50.520;30.486;2024-02-23T03:06:27;7.13;;;5.78;;
45252;SDS011;63171;50.520;30.486;2024-02-23T03:07:17;8.35;;;7.47;;
45252;SDS011;63171;50.520;30.486;2024-02-23T03:08:07;9.45;;;7.50;;
45252;SDS011;63171;50.520;30.486;2024-02-23T03:08:57;8.18;;;6.68;;
45252;SDS011;63171;50.520;30.486;2024-02-23T03:09:47;8.90;;;7.35;;
45252;SDS011;63171;50.520;30.486;2024-02-23T03:10:38;6.82;;;5.95;;
45252;SDS011;63171;50.520;30.486;2024-02-23T03:11:28;7.90;;;6.93;;
45252;SDS011;63171;50.520;30.486;2024-02-23T03:12:18;6.93;;;6.22;;
45252;SDS011;63171;50.520;30.486;2024-02-23T03:13:08;7.32;;;6.63;;
45252;SDS011;63171;50.520;30.486;2024-02-23T03:13:58;8.68;;;6.93;;
45252;SDS011;63171;50.520;30.486;2024-02-23T03:14:48;7.55;;;6.78;;
45252;SDS011;63171;50.520;30.486;2024-02-23T03:15:38;7.03;;;6.05;;
45252;SDS011;63171;50.520;30.486;2024-02-23T03:16:29;10.45;;;7.00;;
45252;SDS011;63171;50.520;30.486;2024-02-23T03:17:20;8.63;;;6.85;;
45252;SDS011;63171;50.520;30.486;2024-02-23T03:18:11;7.97;;;7.20;;
45252;SDS011;63171;50.520;30.486;2024-02-23T03:19:02;8.43;;;6.40;;
45252;SDS011;63171;50.520;30.486;2024-02-23T03:20:42;9.45;;;7.57;;
45252;SDS011;63171;50.520;30.486;2024-02-23T03:21:32;7.95;;;6.88;;
45252;SDS011;63171;50.520;30.486;2024-02-23T03:22:21;10.02;;;6.72;;
45252;SDS011;63171;50.520;30.486;2024-02-23T03:23:12;7.75;;;7.05;;
45252;SDS011;63171;50.520;30.486;2024-02-23T03:24:52;8.77;;;7.20;;
45252;SDS011;63171;50.520;30.486;2024-02-23T03:25:43;7.70;;;6.35;;
45252;SDS011;63171;50.520;30.486;2024-02-23T03:26:33;7.22;;;6.45;;
45252;SDS011;63171;50.520;30.486;2024-02-23T03:27:27;6.65;;;5.95;;
45252;SDS011;63171;50.520;30.486;2024-02-23T03:28:19;8.40;;;6.72;;
45252;SDS011;63171;50.520;30.486;2024-02-23T03:29:10;7.95;;;6.45;;
45252;SDS011;63171;50.520;30.486;2024-02-23T03:30:00;7.47;;;6.38;;
45252;SDS011;63171;50.520;30.486;2024-02-23T03:30:49;8.43;;;7.28;;
45252;SDS011;63171;50.520;30.486;2024-02-23T03:31:42;7.72;;;6.88;;
45252;SDS011;63171;50.520;30.486;2024-02-23T03:32:31;8.48;;;7.40;;
45252;SDS011;63171;50.520;30.486;2024-02-23T03:33:26;10.18;;;7.00;;
45252;SDS011;63171;50.520;30.486;2024-02-23T03:34:16;7.88;;;6.10;;
45252;SDS011;63171;50.520;30.486;2024-02-23T03:35:07;10.82;;;7.40;;
45252;SDS011;63171;50.520;30.486;2024-02-23T03:35:57;7.93;;;7.15;;
45252;SDS011;63171;50.520;30.486;2024-02-23T03:36:48;9.27;;;7.75;;
45252;SDS011;63171;50.520;30.486;2024-02-23T03:37:38;10.10;;;7.38;;
45252;SDS011;63171;50.520;30.486;2024-02-23T03:38:29;8.85;;;7.43;;
45252;SDS011;63171;50.520;30.486;2024-02-23T03:39:19;9.20;;;6.70;;
45252;SDS011;63171;50.520;30.486;2024-02-23T03:40:09;7.35;;;6.65;;
45252;SDS011;63171;50.520;30.486;2024-02-23T03:41:00;7.03;;;6.32;;
45252;SDS011;63171;50.520;30.486;2024-02-23T03:41:50;12.35;;;8.10;;
45252;SDS011;63171;50.520;30.486;2024-02-23T03:42:41;10.07;;;7.70;;
45252;SDS011;63171;50.520;30.486;2024-02-23T03:43:31;10.52;;;9.18;;
45252;SDS011;63171;50.520;30.486;2024-02-23T03:44:21;9.15;;;7.57;;
45252;SDS011;63171;50.520;30.486;2024-02-23T03:45:11;8.98;;;7.97;;
45252;SDS011;63171;50.520;30.486;2024-02-23T03:46:01;8.95;;;7.53;;
45252;SDS011;63171;50.520;30.486;2024-02-23T03:46:53;8.18;;;7.28;;
45252;SDS011;63171;50.520;30.486;2024-02-23T03:47:42;9.15;;;7.45;;
45252;SDS011;63171;50.520;30.486;2024-02-23T03:48:33;9.82;;;7.35;;
45252;SDS011;63171;50.520;30.486;2024-02-23T03:49:23;11.95;;;8.55;;
45252;SDS011;63171;50.520;30.486;2024-02-23T03:50:13;10.43;;;7.93;;
45252;SDS011;63171;50.520;30.486;2024-02-23T03:51:04;9.60;;;8.00;;
45252;SDS011;63171;50.520;30.486;2024-02-23T03:51:54;8.82;;;7.75;;
45252;SDS011;63171;50.520;30.486;2024-02-23T03:52:44;8.82;;;7.45;;
45252;SDS011;63171;50.520;30.486;2024-02-23T03:53:35;9.20;;;8.30;;
45252;SDS011;63171;50.520;30.486;2024-02-23T03:54:24;9.18;;;8.23;;
45252;SDS011;63171;50.520;30.486;2024-02-23T03:55:14;11.27;;;8.63;;
45252;SDS011;63171;50.520;30.486;2024-02-23T03:56:05;9.68;;;8.60;;
45252;SDS011;63171;50.520;30.486;2024-02-23T03:56:55;8.95;;;7.50;;
45252;SDS011;63171;50.520;30.486;2024-02-23T03:57:45;8.63;;;7.40;;
45252;SDS011;63171;50.520;30.486;2024-02-23T03:58:36;10.85;;;7.68;;
45252;SDS011;63171;50.520;30.486;2024-02-23T03:59:26;9.80;;;7.88;;
45252;SDS011;63171;50.520;30.486;2024-02-23T04:00:17;8.13;;;7.32;;
45252;SDS011;63171;50.520;30.486;2024-02-23T04:01:09;9.15;;;7.63;;
45252;SDS011;63171;50.520;30.486;2024-02-23T04:02:00;9.30;;;7.35;;
45252;SDS011;63171;50.520;30.486;2024-02-23T04:02:50;8.98;;;8.07;;
45252;SDS011;63171;50.520;30.486;2024-02-23T04:03:42;9.57;;;7.97;;
45252;SDS011;63171;50.520;30.486;2024-02-23T04:04:33;10.35;;;7.85;;
45252;SDS011;63171;50.520;30.486;2024-02-23T04:05:22;8.75;;;7.22;;
45252;SDS011;63171;50.520;30.486;2024-02-23T04:06:13;10.65;;;7.82;;
45252;SDS011;63171;50.520;30.486;2024-02-23T04:07:03;9.88;;;7.47;;
45252;SDS011;63171;50.520;30.486;2024-02-23T04:07:53;7.78;;;6.93;;
45252;SDS011;63171;50.520;30.486;2024-02-23T04:08:44;9.50;;;7.28;;
45252;SDS011;63171;50.520;30.486;2024-02-23T04:09:34;8.55;;;7.07;;
45252;SDS011;63171;50.520;30.486;2024-02-23T04:10:23;9.88;;;7.80;;
45252;SDS011;63171;50.520;30.486;2024-02-23T04:11:15;9.02;;;7.38;;
45252;SDS011;63171;50.520;30.486;2024-02-23T04:12:05;12.48;;;8.70;;
45252;SDS011;63171;50.520;30.486;2024-02-23T04:12:57;7.68;;;6.72;;
45252;SDS011;63171;50.520;30.486;2024-02-23T04:13:54;10.50;;;8.40;;
45252;SDS011;63171;50.520;30.486;2024-02-23T04:14:44;9.55;;;7.95;;
45252;SDS011;63171;50.520;30.486;2024-02-23T04:15:34;9.02;;;7.20;;
45252;SDS011;63171;50.520;30.486;2024-02-23T04:16:25;8.57;;;7.68;;
45252;SDS011;63171;50.520;30.486;2024-02-23T04:17:16;9.43;;;7.35;;
45252;SDS011;63171;50.520;30.486;2024-02-23T04:18:07;12.27;;;7.50;;
45252;SDS011;63171;50.520;30.486;2024-02-23T04:18:57;9.65;;;7.60;;
45252;SDS011;63171;50.520;30.486;2024-02-23T04:19:47;8.40;;;7.45;;
45252;SDS011;63171;50.520;30.486;2024-02-23T04:20:37;8.90;;;7.82;;
45252;SDS011;63171;50.520;30.486;2024-02-23T04:21:27;8.15;;;6.95;;
45252;SDS011;63171;50.520;30.486;2024-02-23T04:22:17;9.60;;;8.05;;
45252;SDS011;63171;50.520;30.486;2024-02-23T04:23:08;9.23;;;7.78;;
45252;SDS011;63171;50.520;30.486;2024-02-23T04:24:00;8.02;;;7.10;;
45252;SDS011;63171;50.520;30.486;2024-02-23T04:24:51;9.80;;;7.63;;
45252;SDS011;63171;50.520;30.486;2024-02-23T04:25:41;10.13;;;8.20;;
45252;SDS011;63171;50.520;30.486;2024-02-23T04:26:31;8.13;;;7.32;;
45252;SDS011;63171;50.520;30.486;2024-02-23T04:27:22;7.63;;;6.80;;
45252;SDS011;63171;50.520;30.486;2024-02-23T04:28:12;8.23;;;7.43;;
45252;SDS011;63171;50.520;30.486;2024-02-23T04:29:03;9.27;;;7.32;;
45252;SDS011;63171;50.520;30.486;2024-02-23T04:29:53;8.38;;;7.45;;
45252;SDS011;63171;50.520;30.486;2024-02-23T04:30:43;7.75;;;6.97;;
45252;SDS011;63171;50.520;30.486;2024-02-23T04:31:35;8.40;;;7.03;;
45252;SDS011;63171;50.520;30.486;2024-02-23T04:32:28;8.95;;;7.72;;
45252;SDS011;63171;50.520;30.486;2024-02-23T04:33:17;9.90;;;7.85;;
45252;SDS011;63171;50.520;30.486;2024-02-23T04:34:07;10.73;;;7.90;;
45252;SDS011;63171;50.520;30.486;2024-02-23T04:34:58;9.23;;;8.07;;
45252;SDS011;63171;50.520;30.486;2024-02-23T04:35:47;9.63;;;8.07;;
45252;SDS011;63171;50.520;30.486;2024-02-23T04:36:38;13.70;;;8.90;;
45252;SDS011;63171;50.520;30.486;2024-02-23T04:37:29;9.98;;;7.28;;
45252;SDS011;63171;50.520;30.486;2024-02-23T04:38:19;8.85;;;7.93;;
45252;SDS011;63171;50.520;30.486;2024-02-23T04:39:09;8.07;;;7.28;;
45252;SDS011;63171;50.520;30.486;2024-02-23T04:39:59;7.53;;;6.82;;
45252;SDS011;63171;50.520;30.486;2024-02-23T04:40:49;9.02;;;7.35;;
45252;SDS011;63171;50.520;30.486;2024-02-23T04:41:39;8.55;;;7.70;;
45252;SDS011;63171;50.520;30.486;2024-02-23T04:42:30;8.13;;;6.70;;
45252;SDS011;63171;50.520;30.486;2024-02-23T04:43:19;11.02;;;7.60;;
45252;SDS011;63171;50.520;30.486;2024-02-23T04:44:09;8.65;;;7.75;;
45252;SDS011;63171;50.520;30.486;2024-02-23T04:45:00;9.35;;;7.72;;
45252;SDS011;63171;50.520;30.486;2024-02-23T04:45:50;10.23;;;8.27;;
45252;SDS011;63171;50.520;30.486;2024-02-23T04:46:39;9.48;;;7.50;;
45252;SDS011;63171;50.520;30.486;2024-02-23T04:47:32;9.18;;;7.72;;
45252;SDS011;63171;50.520;30.486;2024-02-23T04:48:22;11.57;;;8.52;;
45252;SDS011;63171;50.520;30.486;2024-02-23T04:49:12;9.57;;;8.25;;
45252;SDS011;63171;50.520;30.486;2024-02-23T04:50:03;10.55;;;7.85;;
45252;SDS011;63171;50.520;30.486;2024-02-23T04:50:54;10.00;;;8.40;;
45252;SDS011;63171;50.520;30.486;2024-02-23T04:51:44;8.55;;;7.35;;
45252;SDS011;63171;50.520;30.486;2024-02-23T04:52:34;8.45;;;7.57;;
45252;SDS011;63171;50.520;30.486;2024-02-23T04:53:24;8.50;;;7.65;;
45252;SDS011;63171;50.520;30.486;2024-02-23T04:54:15;9.05;;;7.43;;
45252;SDS011;63171;50.520;30.486;2024-02-23T04:55:05;7.60;;;6.75;;
45252;SDS011;63171;50.520;30.486;2024-02-23T04:55:54;10.60;;;7.22;;
45252;SDS011;63171;50.520;30.486;2024-02-23T04:56:46;8.68;;;7.60;;
45252;SDS011;63171;50.520;30.486;2024-02-23T04:57:36;8.55;;;7.03;;
45252;SDS011;63171;50.520;30.486;2024-02-23T04:59:17;8.88;;;7.35;;
45252;SDS011;63171;50.520;30.486;2024-02-23T05:00:07;8.32;;;7.28;;
45252;SDS011;63171;50.520;30.486;2024-02-23T05:01:47;8.95;;;7.38;;
45252;SDS011;63171;50.520;30.486;2024-02-23T05:02:38;7.78;;;6.95;;
45252;SDS011;63171;50.520;30.486;2024-02-23T05:03:28;7.63;;;6.82;;
45252;SDS011;63171;50.520;30.486;2024-02-23T05:04:18;11.70;;;8.65;;
45252;SDS011;63171;50.520;30.486;2024-02-23T05:05:08;9.43;;;7.07;;
45252;SDS011;63171;50.520;30.486;2024-02-23T05:05:58;7.50;;;6.70;;
45252;SDS011;63171;50.520;30.486;2024-02-23T05:06:49;10.60;;;7.82;;
45252;SDS011;63171;50.520;30.486;2024-02-23T05:07:39;6.97;;;6.28;;
45252;SDS011;63171;50.520;30.486;2024-02-23T05:08:29;8.55;;;7.63;;
45252;SDS011;63171;50.520;30.486;2024-02-23T05:09:20;8.18;;;6.95;;
45252;SDS011;63171;50.520;30.486;2024-02-23T05:10:10;9.13;;;7.55;;
45252;SDS011;63171;50.520;30.486;2024-02-23T05:11:01;8.40;;;6.70;;